createdAt,value
2023-02-16T00:00:55.145Z,101319.56
2023-02-16T00:05:56.330Z,101328.25
2023-02-16T00:11:16.130Z,101333.66
2023-02-16T00:16:17.469Z,101328.78
2023-02-16T00:21:18.895Z,101323.00
2023-02-16T00:26:20.159Z,101324.59
2023-02-16T00:31:21.457Z,101316.97
2023-02-16T00:36:22.761Z,101306.91
2023-02-16T00:41:43.009Z,101312.56
2023-02-16T00:46:44.231Z,101315.25
2023-02-16T00:51:45.472Z,101304.25
2023-02-16T00:56:46.708Z,101326.03
2023-02-16T01:01:47.957Z,101311.22
2023-02-16T01:07:07.842Z,101297.50
2023-02-16T01:12:09.007Z,101298.38
2023-02-16T01:17:10.266Z,101292.84
2023-02-16T01:22:11.459Z,101292.03
2023-02-16T01:27:13.179Z,101291.03
2023-02-16T01:32:14.414Z,101297.22
2023-02-16T01:37:16.005Z,101286.97
2023-02-16T01:42:17.217Z,101282.00
2023-02-16T01:47:18.385Z,101284.47
2023-02-16T01:52:20.165Z,101277.34
2023-02-16T01:57:21.976Z,101280.94
2023-02-16T02:02:23.309Z,101287.25
2023-02-16T02:07:24.522Z,101283.47
2023-02-16T02:12:25.741Z,101282.75
2023-02-16T02:17:26.934Z,101276.44
2023-02-16T02:22:46.947Z,101272.81
2023-02-16T02:27:48.285Z,101272.94
2023-02-16T02:32:50.035Z,101267.97
2023-02-16T02:37:51.293Z,101264.09
2023-02-16T02:42:52.489Z,101263.53
2023-02-16T02:47:53.713Z,101246.13
2023-02-16T02:52:54.841Z,101252.13
2023-02-16T02:58:14.611Z,101267.69
2023-02-16T03:03:15.918Z,101255.75
2023-02-16T03:08:17.537Z,101246.56
2023-02-16T03:13:18.769Z,101247.69
2023-02-16T03:18:38.663Z,101244.88
2023-02-16T03:23:58.348Z,101239.69
2023-02-16T03:29:18.238Z,101233.50
2023-02-16T03:34:19.457Z,101229.78
2023-02-16T03:39:20.661Z,101209.56
2023-02-16T03:44:21.938Z,101208.75
2023-02-16T03:49:23.128Z,101209.13
2023-02-16T03:54:24.358Z,101212.59
2023-02-16T03:59:25.574Z,101214.72
2023-02-16T04:04:26.840Z,101225.59
2023-02-16T04:09:28.076Z,101215.50
2023-02-16T04:14:29.281Z,101225.88
2023-02-16T04:19:30.654Z,101220.69
2023-02-16T04:24:31.878Z,101221.72
2023-02-16T04:29:33.103Z,101219.41
2023-02-16T04:34:34.319Z,101221.44
2023-02-16T04:39:35.549Z,101223.84
2023-02-16T04:44:36.744Z,101218.66
2023-02-16T04:49:37.966Z,101231.13
2023-02-16T04:54:39.185Z,101222.41
2023-02-16T04:59:40.350Z,101226.00
2023-02-16T05:04:42.198Z,101224.88
2023-02-16T05:09:43.450Z,101222.13
2023-02-16T05:14:45.474Z,101212.31
2023-02-16T05:19:46.643Z,101225.72
2023-02-16T05:24:47.819Z,101220.94
2023-02-16T05:29:49.000Z,101221.97
2023-02-16T05:34:50.268Z,101218.50
2023-02-16T05:39:52.898Z,101226.75
2023-02-16T05:44:54.201Z,101224.16
2023-02-16T05:49:55.380Z,101230.38
2023-02-16T05:54:56.574Z,101225.00
2023-02-16T05:59:57.845Z,101230.19
2023-02-16T06:04:59.040Z,101233.41
2023-02-16T06:10:00.214Z,101230.66
2023-02-16T06:15:01.395Z,101227.50
2023-02-16T06:20:02.603Z,101228.28
2023-02-16T06:25:03.857Z,101225.84
2023-02-16T06:30:06.056Z,101215.75
2023-02-16T06:35:07.225Z,101225.66
2023-02-16T06:40:09.940Z,101224.31
2023-02-16T06:45:11.163Z,101224.19
2023-02-16T06:50:14.339Z,101225.25
2023-02-16T06:55:15.652Z,101235.69
2023-02-16T07:00:16.806Z,101233.38
2023-02-16T07:05:17.970Z,101233.63
2023-02-16T07:10:20.080Z,101240.03
2023-02-16T07:15:21.320Z,101228.47
2023-02-16T07:20:22.609Z,101234.47
2023-02-16T07:25:26.806Z,101262.88
2023-02-16T07:30:28.387Z,101245.50
2023-02-16T07:35:29.595Z,101235.00
2023-02-16T07:40:30.822Z,101249.38
2023-02-16T07:45:35.158Z,101248.59
2023-02-16T07:50:36.398Z,101253.56
2023-02-16T07:55:37.546Z,101246.09
2023-02-16T08:00:38.804Z,101247.13
2023-02-16T08:05:39.967Z,101248.03
2023-02-16T08:10:41.183Z,101243.28
2023-02-16T08:15:42.381Z,101244.53
2023-02-16T08:21:01.505Z,101235.72
2023-02-16T08:26:04.678Z,101236.94
2023-02-16T08:31:06.414Z,101242.03
2023-02-16T08:36:09.513Z,101233.22
2023-02-16T08:41:10.763Z,101233.34
2023-02-16T08:46:12.093Z,101238.06
2023-02-16T08:51:13.320Z,101235.13
2023-02-16T08:56:14.618Z,101234.91
2023-02-16T09:01:15.822Z,101243.00
2023-02-16T09:06:17.077Z,101250.31
2023-02-16T09:11:18.282Z,101252.75
2023-02-16T09:16:19.496Z,101265.88
2023-02-16T09:21:20.832Z,101268.78
2023-02-16T09:26:22.130Z,101271.25
2023-02-16T09:31:26.979Z,101265.00
2023-02-16T09:36:28.549Z,101263.94
2023-02-16T09:41:29.722Z,101260.94
2023-02-16T09:46:31.004Z,101265.06
2023-02-16T09:51:34.735Z,101267.25
2023-02-16T09:56:36.230Z,101260.00
2023-02-16T10:01:37.496Z,101268.88
2023-02-16T10:06:40.324Z,101266.31
2023-02-16T10:11:42.037Z,101270.28
2023-02-16T10:16:43.312Z,101282.16
2023-02-16T10:21:44.451Z,101277.72
2023-02-16T10:26:46.249Z,101277.75
2023-02-16T10:31:48.385Z,101271.91
2023-02-16T10:36:49.983Z,101269.84
2023-02-16T10:41:51.965Z,101267.75
2023-02-16T10:46:53.096Z,101265.91
2023-02-16T10:51:54.243Z,101277.63
2023-02-16T10:56:57.412Z,101269.09
2023-02-16T11:01:59.085Z,101264.59
2023-02-16T11:07:00.305Z,101263.56
2023-02-16T11:12:01.507Z,101249.13
2023-02-16T11:17:02.765Z,101252.84
2023-02-16T11:22:04.078Z,101245.63
2023-02-16T11:27:05.357Z,101229.09
2023-02-16T11:32:06.551Z,101225.59
2023-02-16T11:37:09.269Z,101229.41
2023-02-16T11:42:10.476Z,101217.16
2023-02-16T11:47:11.694Z,101206.94
2023-02-16T11:52:13.139Z,101192.78
2023-02-16T11:57:15.895Z,101194.31
2023-02-16T12:02:17.252Z,101180.94
2023-02-16T12:07:20.155Z,101188.31
2023-02-16T12:12:21.477Z,101170.19
2023-02-16T12:17:22.777Z,101175.97
2023-02-16T12:22:23.939Z,101160.47
2023-02-16T12:27:25.171Z,101163.66
2023-02-16T12:32:30.232Z,101169.66
2023-02-16T12:37:31.497Z,101164.94
2023-02-16T12:42:32.778Z,101163.88
2023-02-16T12:47:33.929Z,101173.31
2023-02-16T12:52:35.349Z,101166.75
2023-02-16T12:57:36.565Z,101155.47
2023-02-16T13:02:40.380Z,101148.66
2023-02-16T13:07:41.613Z,101137.63
2023-02-16T13:12:42.850Z,101129.22
2023-02-16T13:17:44.102Z,101122.69
2023-02-16T13:22:45.266Z,101119.28
2023-02-16T13:27:47.430Z,101074.16
2023-02-16T13:32:48.722Z,101111.44
2023-02-16T13:37:49.896Z,101091.97
2023-02-16T13:42:52.278Z,101111.13
2023-02-16T13:47:53.425Z,101105.09
2023-02-16T13:52:54.693Z,101094.03
2023-02-16T13:57:55.983Z,101081.28
2023-02-16T14:02:57.240Z,101063.91
2023-02-16T14:07:58.454Z,101054.06
2023-02-16T14:12:59.638Z,101042.06
2023-02-16T14:18:00.899Z,101038.22
2023-02-16T14:23:02.495Z,101035.66
2023-02-16T14:28:03.797Z,101041.59
2023-02-16T14:33:05.028Z,101031.16
2023-02-16T14:38:06.888Z,101023.31
2023-02-16T14:43:08.172Z,101018.53
2023-02-16T14:48:09.382Z,101025.84
2023-02-16T14:53:10.575Z,100984.44
2023-02-16T14:58:11.869Z,101025.13
2023-02-16T15:03:13.878Z,101018.56
2023-02-16T15:08:16.261Z,101016.78
2023-02-16T15:13:17.446Z,101020.59
2023-02-16T15:18:18.640Z,101025.09
2023-02-16T15:23:19.938Z,101013.16
2023-02-16T15:28:22.243Z,101007.97
2023-02-16T15:33:23.380Z,100989.34
2023-02-16T15:38:24.534Z,100989.09
2023-02-16T15:43:26.742Z,100992.06
2023-02-16T15:48:28.273Z,100979.00
2023-02-16T15:53:29.425Z,100986.69
2023-02-16T15:58:32.832Z,100988.88
2023-02-16T16:03:34.140Z,100988.38
2023-02-16T16:08:35.393Z,100997.66
2023-02-16T16:13:36.744Z,100994.03
2023-02-16T16:18:38.949Z,101003.78
2023-02-16T16:23:43.262Z,100991.94
2023-02-16T16:28:44.435Z,100996.94
2023-02-16T16:33:45.637Z,100985.69
2023-02-16T16:38:46.806Z,100996.72
2023-02-16T16:43:47.984Z,101001.72
2023-02-16T16:48:49.138Z,100997.53
2023-02-16T16:53:50.349Z,100998.09
2023-02-16T16:58:51.630Z,100998.59
2023-02-16T17:03:52.838Z,100991.25
2023-02-16T17:08:55.215Z,100983.66
2023-02-16T17:13:56.486Z,100989.69
2023-02-16T17:18:57.676Z,100984.97
2023-02-16T17:23:58.838Z,100989.69
2023-02-16T17:29:00.166Z,100986.03
2023-02-16T17:34:01.325Z,100988.66
2023-02-16T17:39:02.634Z,100987.06
2023-02-16T17:44:05.053Z,100983.16
2023-02-16T17:49:06.223Z,100988.69
2023-02-16T17:54:10.557Z,100973.97
2023-02-16T17:59:15.098Z,100975.59
2023-02-16T18:04:16.277Z,100980.28
2023-02-16T18:09:23.181Z,101002.59
2023-02-16T18:14:24.369Z,101015.69
2023-02-16T18:19:25.502Z,101006.50
2023-02-16T18:24:26.626Z,101001.00
2023-02-16T18:29:27.767Z,101009.13
2023-02-16T18:34:28.974Z,101006.78
2023-02-16T18:39:30.149Z,101009.69
2023-02-16T18:44:31.436Z,101018.59
2023-02-16T18:49:32.718Z,101019.13
2023-02-16T18:54:33.956Z,101034.06
2023-02-16T18:59:35.285Z,101025.38
2023-02-16T19:04:36.451Z,101019.09
2023-02-16T19:09:37.693Z,101016.22
2023-02-16T19:14:38.965Z,101022.22
2023-02-16T19:19:40.147Z,101023.81
2023-02-16T19:24:41.329Z,101026.44
2023-02-16T19:29:42.496Z,101023.56
2023-02-16T19:34:43.657Z,101020.13
2023-02-16T19:39:44.933Z,101031.69
2023-02-16T19:44:46.173Z,101014.38
2023-02-16T19:49:47.406Z,101019.09
2023-02-16T19:54:49.369Z,101028.50
2023-02-16T19:59:50.588Z,101024.84
2023-02-16T20:04:51.710Z,101028.72
2023-02-16T20:09:52.883Z,101040.00
2023-02-16T20:14:54.083Z,101041.25
2023-02-16T20:19:55.297Z,101028.16
2023-02-16T20:24:56.630Z,101007.44
2023-02-16T20:29:57.858Z,101005.34
2023-02-16T20:34:59.112Z,100998.06
2023-02-16T20:40:00.266Z,100996.22
2023-02-16T20:45:01.449Z,101000.13
2023-02-16T20:50:02.608Z,100987.53
2023-02-16T20:55:03.828Z,100989.63
2023-02-16T21:00:04.949Z,100983.88
2023-02-16T21:05:06.192Z,100973.41
2023-02-16T21:10:07.329Z,100990.69
2023-02-16T21:15:09.963Z,100988.59
2023-02-16T21:20:11.153Z,100981.25
2023-02-16T21:25:12.474Z,100980.47
2023-02-16T21:30:13.720Z,100977.00
2023-02-16T21:35:15.009Z,100982.47
2023-02-16T21:40:34.766Z,100979.09
2023-02-16T21:45:35.900Z,100974.63
2023-02-16T21:50:37.085Z,100952.88
2023-02-16T21:55:56.843Z,100964.97
2023-02-16T22:01:00.013Z,100958.94
2023-02-16T22:06:01.301Z,100954.75
2023-02-16T22:11:02.509Z,100955.00
2023-02-16T22:16:03.873Z,100955.00
2023-02-16T22:21:05.290Z,100952.66
2023-02-16T22:26:06.732Z,100946.38
2023-02-16T22:31:08.176Z,100947.16
2023-02-16T22:36:11.541Z,100942.19
2023-02-16T22:41:12.726Z,100944.53
2023-02-16T22:46:14.058Z,100951.34
2023-02-16T22:51:15.283Z,100938.28
2023-02-16T22:56:16.533Z,100942.44
2023-02-16T23:01:17.787Z,100949.25
2023-02-16T23:06:19.136Z,100943.78
2023-02-16T23:11:20.349Z,100937.25
2023-02-16T23:16:21.594Z,100937.78
2023-02-16T23:21:22.814Z,100939.09
2023-02-16T23:26:24.073Z,100932.03
2023-02-16T23:31:25.318Z,100942.00
2023-02-16T23:36:26.529Z,100946.47
2023-02-16T23:41:27.665Z,100951.19
2023-02-16T23:46:28.916Z,100949.34
2023-02-16T23:51:30.165Z,100938.34
2023-02-16T23:56:31.417Z,100934.16
